sensor_id;sensor_type;location;lat;lon;timestamp;pressure;altitude;pressure_sealevel;temperature;humidity
67109;BME280;54027;50.786;7.058;2023-05-16T00:00:37;101110.59;;;12.70;81.44
67109;BME280;54027;50.786;7.058;2023-05-16T00:03:04;101108.94;;;12.66;81.76
67109;BME280;54027;50.786;7.058;2023-05-16T00:05:29;101109.81;;;12.64;81.92
67109;BME280;54027;50.786;7.058;2023-05-16T00:07:55;101119.41;;;12.56;82.46
67109;BME280;54027;50.786;7.058;2023-05-16T00:10:20;101118.59;;;12.52;83.45
67109;BME280;54027;50.786;7.058;2023-05-16T00:12:45;101119.50;;;12.46;83.72
67109;BME280;54027;50.786;7.058;2023-05-16T00:15:12;101117.81;;;12.41;84.55
67109;BME280;54027;50.786;7.058;2023-05-16T00:17:38;101121.34;;;12.35;84.94
67109;BME280;54027;50.786;7.058;2023-05-16T00:20:05;101116.22;;;12.31;85.83
67109;BME280;54027;50.786;7.058;2023-05-16T00:22:36;101120.59;;;12.23;86.80
67109;BME280;54027;50.786;7.058;2023-05-16T00:25:02;101119.00;;;12.08;88.60
67109;BME280;54027;50.786;7.058;2023-05-16T00:27:28;101121.72;;;11.98;89.80
67109;BME280;54027;50.786;7.058;2023-05-16T00:29:54;101121.78;;;11.88;91.62
67109;BME280;54027;50.786;7.058;2023-05-16T00:32:19;101126.97;;;11.85;92.75
67109;BME280;54027;50.786;7.058;2023-05-16T00:34:45;101122.72;;;11.77;93.40
67109;BME280;54027;50.786;7.058;2023-05-16T00:37:10;101126.25;;;11.68;94.55
67109;BME280;54027;50.786;7.058;2023-05-16T00:39:36;101126.28;;;11.61;95.84
67109;BME280;54027;50.786;7.058;2023-05-16T00:42:01;101124.59;;;11.58;95.88
67109;BME280;54027;50.786;7.058;2023-05-16T00:44:26;101125.50;;;11.53;97.31
67109;BME280;54027;50.786;7.058;2023-05-16T00:46:53;101122.94;;;11.48;97.65
67109;BME280;54027;50.786;7.058;2023-05-16T00:49:18;101118.63;;;11.46;98.57
67109;BME280;54027;50.786;7.058;2023-05-16T00:51:44;101124.69;;;11.43;99.17
67109;BME280;54027;50.786;7.058;2023-05-16T00:54:09;101116.91;;;11.37;99.38
67109;BME280;54027;50.786;7.058;2023-05-16T00:56:36;101115.19;;;11.38;100.00
67109;BME280;54027;50.786;7.058;2023-05-16T00:59:01;101116.09;;;11.35;100.00
67109;BME280;54027;50.786;7.058;2023-05-16T01:01:28;101122.13;;;11.35;100.00
67109;BME280;54027;50.786;7.058;2023-05-16T01:03:53;101117.81;;;11.31;100.00
67109;BME280;54027;50.786;7.058;2023-05-16T01:06:19;101118.72;;;11.26;100.00
67109;BME280;54027;50.786;7.058;2023-05-16T01:08:45;101122.16;;;11.28;100.00
67109;BME280;54027;50.786;7.058;2023-05-16T01:11:33;101124.75;;;11.26;100.00
67109;BME280;54027;50.786;7.058;2023-05-16T01:16:37;101113.56;;;11.27;100.00
67109;BME280;54027;50.786;7.058;2023-05-16T01:19:19;101127.38;;;11.23;100.00
67109;BME280;54027;50.786;7.058;2023-05-16T01:27:34;101120.47;;;11.22;100.00
67109;BME280;54027;50.786;7.058;2023-05-16T01:30:13;101124.78;;;11.20;100.00
67109;BME280;54027;50.786;7.058;2023-05-16T01:32:39;101125.66;;;11.18;100.00
67109;BME280;54027;50.786;7.058;2023-05-16T01:35:06;101120.50;;;11.16;100.00
67109;BME280;54027;50.786;7.058;2023-05-16T01:42:56;101132.56;;;11.13;100.00
67109;BME280;54027;50.786;7.058;2023-05-16T01:45:31;101145.53;;;11.11;100.00
67109;BME280;54027;50.786;7.058;2023-05-16T01:48:04;101136.91;;;11.11;100.00
67109;BME280;54027;50.786;7.058;2023-05-16T01:50:34;101140.41;;;11.04;100.00
67109;BME280;54027;50.786;7.058;2023-05-16T01:53:14;101142.13;;;11.02;100.00
67109;BME280;54027;50.786;7.058;2023-05-16T01:55:50;101144.69;;;11.05;100.00
67109;BME280;54027;50.786;7.058;2023-05-16T01:58:19;101149.88;;;11.02;100.00
67109;BME280;54027;50.786;7.058;2023-05-16T02:00:45;101144.72;;;10.99;100.00
67109;BME280;54027;50.786;7.058;2023-05-16T02:03:11;101152.50;;;10.97;100.00
67109;BME280;54027;50.786;7.058;2023-05-16T02:05:36;101155.09;;;10.97;100.00
67109;BME280;54027;50.786;7.058;2023-05-16T02:08:02;101155.06;;;10.99;100.00
67109;BME280;54027;50.786;7.058;2023-05-16T02:10:28;101158.56;;;10.95;100.00
67109;BME280;54027;50.786;7.058;2023-05-16T02:12:53;101154.25;;;10.91;100.00
67109;BME280;54027;50.786;7.058;2023-05-16T02:15:19;101168.03;;;10.84;100.00
67109;BME280;54027;50.786;7.058;2023-05-16T02:17:45;101161.19;;;10.79;100.00
67109;BME280;54027;50.786;7.058;2023-05-16T02:20:11;101169.81;;;10.74;100.00
67109;BME280;54027;50.786;7.058;2023-05-16T02:22:37;101171.53;;;10.69;100.00
67109;BME280;54027;50.786;7.058;2023-05-16T02:25:08;101171.53;;;10.66;100.00
67109;BME280;54027;50.786;7.058;2023-05-16T02:27:34;101182.78;;;10.59;100.00
67109;BME280;54027;50.786;7.058;2023-05-16T02:30:00;101192.25;;;10.55;100.00
67109;BME280;54027;50.786;7.058;2023-05-16T02:32:25;101188.81;;;10.50;100.00
67109;BME280;54027;50.786;7.058;2023-05-16T02:34:51;101196.59;;;10.47;100.00
67109;BME280;54027;50.786;7.058;2023-05-16T02:37:17;101189.66;;;10.45;100.00
67109;BME280;54027;50.786;7.058;2023-05-16T02:39:42;101196.56;;;10.43;100.00
67109;BME280;54027;50.786;7.058;2023-05-16T02:42:07;101193.13;;;10.41;100.00
67109;BME280;54027;50.786;7.058;2023-05-16T02:44:33;101207.78;;;10.37;100.00
67109;BME280;54027;50.786;7.058;2023-05-16T02:46:58;101208.63;;;10.36;100.00
67109;BME280;54027;50.786;7.058;2023-05-16T02:49:24;101213.78;;;10.33;100.00
67109;BME280;54027;50.786;7.058;2023-05-16T02:51:49;101220.72;;;10.23;100.00
67109;BME280;54027;50.786;7.058;2023-05-16T02:54:15;101211.22;;;10.22;100.00
67109;BME280;54027;50.786;7.058;2023-05-16T02:56:41;101221.56;;;10.19;100.00
67109;BME280;54027;50.786;7.058;2023-05-16T02:59:06;101220.69;;;10.11;100.00
67109;BME280;54027;50.786;7.058;2023-05-16T03:01:33;101228.44;;;10.05;100.00
67109;BME280;54027;50.786;7.058;2023-05-16T03:03:58;101232.72;;;9.93;100.00
67109;BME280;54027;50.786;7.058;2023-05-16T03:06:24;101235.28;;;9.87;100.00
67109;BME280;54027;50.786;7.058;2023-05-16T03:08:49;101246.44;;;9.80;100.00
67109;BME280;54027;50.786;7.058;2023-05-16T03:11:16;101246.44;;;9.72;100.00
67109;BME280;54027;50.786;7.058;2023-05-16T03:13:43;101243.84;;;9.66;100.00
67109;BME280;54027;50.786;7.058;2023-05-16T03:16:08;101246.41;;;9.63;100.00
67109;BME280;54027;50.786;7.058;2023-05-16T03:18:34;101248.94;;;9.57;100.00
67109;BME280;54027;50.786;7.058;2023-05-16T03:20:59;101248.09;;;9.55;100.00
67109;BME280;54027;50.786;7.058;2023-05-16T03:23:25;101248.06;;;9.53;100.00
67109;BME280;54027;50.786;7.058;2023-05-16T03:25:51;101256.66;;;9.46;100.00
67109;BME280;54027;50.786;7.058;2023-05-16T03:28:16;101252.34;;;9.45;100.00
67109;BME280;54027;50.786;7.058;2023-05-16T03:30:42;101259.22;;;9.45;100.00
67109;BME280;54027;50.786;7.058;2023-05-16T03:33:08;101268.66;;;9.40;100.00
67109;BME280;54027;50.786;7.058;2023-05-16T03:35:34;101264.34;;;9.39;100.00
67109;BME280;54027;50.786;7.058;2023-05-16T03:38:01;101265.19;;;9.38;100.00
67109;BME280;54027;50.786;7.058;2023-05-16T03:40:26;101272.97;;;9.39;100.00
67109;BME280;54027;50.786;7.058;2023-05-16T03:42:52;101276.38;;;9.38;100.00
67109;BME280;54027;50.786;7.058;2023-05-16T03:45:17;101277.25;;;9.37;100.00
67109;BME280;54027;50.786;7.058;2023-05-16T03:47:43;101282.41;;;9.34;100.00
67109;BME280;54027;50.786;7.058;2023-05-16T03:50:09;101291.00;;;9.36;100.00
67109;BME280;54027;50.786;7.058;2023-05-16T03:52:34;101290.97;;;9.35;100.00
67109;BME280;54027;50.786;7.058;2023-05-16T03:55:00;101290.97;;;9.30;100.00
67109;BME280;54027;50.786;7.058;2023-05-16T03:57:30;101283.22;;;9.30;100.00
67109;BME280;54027;50.786;7.058;2023-05-16T03:59:56;101290.97;;;9.30;100.00
67109;BME280;54027;50.786;7.058;2023-05-16T04:02:21;101296.13;;;9.32;100.00
67109;BME280;54027;50.786;7.058;2023-05-16T04:04:46;101303.03;;;9.33;100.00
67109;BME280;54027;50.786;7.058;2023-05-16T04:07:12;101306.44;;;9.32;100.00
67109;BME280;54027;50.786;7.058;2023-05-16T04:09:37;101303.00;;;9.28;100.00
67109;BME280;54027;50.786;7.058;2023-05-16T04:12:03;101307.31;;;9.28;100.00
67109;BME280;54027;50.786;7.058;2023-05-16T04:14:29;101315.00;;;9.23;99.32
67109;BME280;54027;50.786;7.058;2023-05-16T04:16:54;101310.72;;;9.22;99.47
67109;BME280;54027;50.786;7.058;2023-05-16T04:19:19;101314.13;;;9.18;98.49
67109;BME280;54027;50.786;7.058;2023-05-16T04:21:45;101321.00;;;9.16;97.46
67109;BME280;54027;50.786;7.058;2023-05-16T04:24:10;101323.56;;;9.13;98.55
67109;BME280;54027;50.786;7.058;2023-05-16T04:26:36;101320.94;;;9.10;98.90
67109;BME280;54027;50.786;7.058;2023-05-16T04:29:02;101321.78;;;9.09;97.41
67109;BME280;54027;50.786;7.058;2023-05-16T04:31:27;101328.66;;;9.07;97.86
67109;BME280;54027;50.786;7.058;2023-05-16T04:33:53;101324.34;;;9.04;98.12
67109;BME280;54027;50.786;7.058;2023-05-16T04:36:19;101332.06;;;9.03;97.92
67109;BME280;54027;50.786;7.058;2023-05-16T04:38:45;101339.81;;;9.01;97.20
67109;BME280;54027;50.786;7.058;2023-05-16T04:41:13;101334.66;;;9.04;95.79
67109;BME280;54027;50.786;7.058;2023-05-16T04:43:39;101343.28;;;9.05;95.25
67109;BME280;54027;50.786;7.058;2023-05-16T04:46:05;101340.72;;;9.12;92.94
67109;BME280;54027;50.786;7.058;2023-05-16T04:48:32;101350.19;;;9.12;92.93
67109;BME280;54027;50.786;7.058;2023-05-16T04:50:58;101347.59;;;9.12;94.04
67109;BME280;54027;50.786;7.058;2023-05-16T04:53:23;101351.03;;;9.09;94.73
67109;BME280;54027;50.786;7.058;2023-05-16T04:55:48;101362.19;;;9.08;95.67
67109;BME280;54027;50.786;7.058;2023-05-16T04:58:14;101357.91;;;9.07;94.45
67109;BME280;54027;50.786;7.058;2023-05-16T05:00:40;101367.38;;;9.11;95.58
67109;BME280;54027;50.786;7.058;2023-05-16T05:03:06;101370.81;;;9.12;94.91
67109;BME280;54027;50.786;7.058;2023-05-16T05:05:31;101375.13;;;9.13;94.76
67109;BME280;54027;50.786;7.058;2023-05-16T05:07:57;101380.28;;;9.13;93.81
67109;BME280;54027;50.786;7.058;2023-05-16T05:10:22;101377.72;;;9.16;93.65
67109;BME280;54027;50.786;7.058;2023-05-16T05:12:48;101381.19;;;9.20;93.61
67109;BME280;54027;50.786;7.058;2023-05-16T05:15:13;101388.94;;;9.21;93.75
67109;BME280;54027;50.786;7.058;2023-05-16T05:17:39;101394.16;;;9.26;94.22
67109;BME280;54027;50.786;7.058;2023-05-16T05:20:05;101397.56;;;9.29;93.49
67109;BME280;54027;50.786;7.058;2023-05-16T05:22:34;101392.44;;;9.32;93.09
67109;BME280;54027;50.786;7.058;2023-05-16T05:25:00;101397.63;;;9.34;93.43
67109;BME280;54027;50.786;7.058;2023-05-16T05:27:25;101407.06;;;9.33;92.63
67109;BME280;54027;50.786;7.058;2023-05-16T05:29:51;101413.97;;;9.36;92.52
67109;BME280;54027;50.786;7.058;2023-05-16T05:32:17;101423.41;;;9.35;91.33
67109;BME280;54027;50.786;7.058;2023-05-16T05:34:42;101415.69;;;9.35;92.02
67109;BME280;54027;50.786;7.058;2023-05-16T05:37:08;101419.09;;;9.30;90.96
67109;BME280;54027;50.786;7.058;2023-05-16T05:39:33;101424.28;;;9.31;91.51
67109;BME280;54027;50.786;7.058;2023-05-16T05:41:59;101426.84;;;9.31;90.62
67109;BME280;54027;50.786;7.058;2023-05-16T05:44:26;101429.44;;;9.36;89.94
67109;BME280;54027;50.786;7.058;2023-05-16T05:46:51;101432.06;;;9.37;88.78
67109;BME280;54027;50.786;7.058;2023-05-16T05:49:17;101434.69;;;9.48;89.18
67109;BME280;54027;50.786;7.058;2023-05-16T05:51:42;101434.69;;;9.45;89.36
67109;BME280;54027;50.786;7.058;2023-05-16T05:54:09;101434.63;;;9.34;88.58
67109;BME280;54027;50.786;7.058;2023-05-16T05:56:34;101444.00;;;9.28;88.90
67109;BME280;54027;50.786;7.058;2023-05-16T05:59:00;101445.69;;;9.24;88.09
67109;BME280;54027;50.786;7.058;2023-05-16T06:01:25;101445.72;;;9.23;88.34
67109;BME280;54027;50.786;7.058;2023-05-16T06:03:51;101452.59;;;9.27;86.82
67109;BME280;54027;50.786;7.058;2023-05-16T06:06:17;101463.00;;;9.36;89.39
67109;BME280;54027;50.786;7.058;2023-05-16T06:08:42;101465.56;;;9.34;88.43
67109;BME280;54027;50.786;7.058;2023-05-16T06:11:08;101458.75;;;9.44;87.63
67109;BME280;54027;50.786;7.058;2023-05-16T06:13:33;101465.81;;;9.63;88.38
67109;BME280;54027;50.786;7.058;2023-05-16T06:15:58;101455.56;;;9.77;87.33
67109;BME280;54027;50.786;7.058;2023-05-16T06:18:24;101467.66;;;9.88;85.01
67109;BME280;54027;50.786;7.058;2023-05-16T06:20:49;101449.66;;;9.96;83.61
67109;BME280;54027;50.786;7.058;2023-05-16T06:23:16;101445.41;;;10.05;81.25
67109;BME280;54027;50.786;7.058;2023-05-16T06:25:42;101464.31;;;10.09;81.70
67109;BME280;54027;50.786;7.058;2023-05-16T06:28:07;101479.00;;;10.08;81.77
67109;BME280;54027;50.786;7.058;2023-05-16T06:30:32;101468.69;;;10.16;82.34
67109;BME280;54027;50.786;7.058;2023-05-16T06:32:59;101454.03;;;10.15;80.71
67109;BME280;54027;50.786;7.058;2023-05-16T06:35:24;101454.03;;;10.13;79.36
67109;BME280;54027;50.786;7.058;2023-05-16T06:37:49;101468.75;;;10.30;80.60
67109;BME280;54027;50.786;7.058;2023-05-16T06:40:15;101456.72;;;10.35;79.20
67109;BME280;54027;50.786;7.058;2023-05-16T06:42:40;101434.25;;;10.17;76.32
67109;BME280;54027;50.786;7.058;2023-05-16T06:45:06;101467.81;;;10.18;79.18
67109;BME280;54027;50.786;7.058;2023-05-16T06:47:32;101474.72;;;10.19;79.17
67109;BME280;54027;50.786;7.058;2023-05-16T06:49:58;101452.34;;;10.17;77.31
67109;BME280;54027;50.786;7.058;2023-05-16T06:52:24;101468.66;;;10.11;77.24
67109;BME280;54027;50.786;7.058;2023-05-16T06:54:49;101450.53;;;9.99;76.95
67109;BME280;54027;50.786;7.058;2023-05-16T06:57:15;101447.06;;;9.97;76.32
67109;BME280;54027;50.786;7.058;2023-05-16T06:59:40;101458.31;;;10.07;76.66
67109;BME280;54027;50.786;7.058;2023-05-16T07:02:06;101458.38;;;10.25;75.56
67109;BME280;54027;50.786;7.058;2023-05-16T07:04:32;101465.38;;;10.47;75.94
67109;BME280;54027;50.786;7.058;2023-05-16T07:06:58;101436.13;;;10.65;73.80
67109;BME280;54027;50.786;7.058;2023-05-16T07:09:24;101459.38;;;10.66;74.36
67109;BME280;54027;50.786;7.058;2023-05-16T07:11:49;101436.13;;;10.72;73.18
67109;BME280;54027;50.786;7.058;2023-05-16T07:14:14;101431.81;;;10.82;72.14
67109;BME280;54027;50.786;7.058;2023-05-16T07:16:40;101468.88;;;10.78;74.73
67109;BME280;54027;50.786;7.058;2023-05-16T07:19:05;101413.69;;;10.65;71.31
67109;BME280;54027;50.786;7.058;2023-05-16T07:21:31;101402.50;;;10.72;69.65
67109;BME280;54027;50.786;7.058;2023-05-16T07:23:56;101419.75;;;10.96;70.95
67109;BME280;54027;50.786;7.058;2023-05-16T07:26:22;101420.63;;;11.13;69.84
67109;BME280;54027;50.786;7.058;2023-05-16T07:28:51;101381.81;;;10.98;68.26
67109;BME280;54027;50.786;7.058;2023-05-16T07:31:16;101408.56;;;11.06;68.78
67109;BME280;54027;50.786;7.058;2023-05-16T07:33:43;101437.88;;;11.13;69.41
67109;BME280;54027;50.786;7.058;2023-05-16T07:36:09;101429.25;;;11.20;69.98
67109;BME280;54027;50.786;7.058;2023-05-16T07:38:35;101426.69;;;11.18;69.59
67109;BME280;54027;50.786;7.058;2023-05-16T07:41:01;101408.56;;;11.20;68.21
67109;BME280;54027;50.786;7.058;2023-05-16T07:43:26;101413.75;;;11.15;68.39
67109;BME280;54027;50.786;7.058;2023-05-16T07:45:52;101393.91;;;11.10;67.00
67109;BME280;54027;50.786;7.058;2023-05-16T07:48:17;101418.06;;;11.12;68.42
67109;BME280;54027;50.786;7.058;2023-05-16T07:50:43;101410.28;;;11.16;68.28
67109;BME280;54027;50.786;7.058;2023-05-16T07:53:08;101395.63;;;11.27;67.50
67109;BME280;54027;50.786;7.058;2023-05-16T07:55:34;101373.19;;;11.48;66.40
67109;BME280;54027;50.786;7.058;2023-05-16T07:57:59;101374.03;;;11.51;65.24
67109;BME280;54027;50.786;7.058;2023-05-16T08:00:25;101365.38;;;11.55;65.68
67109;BME280;54027;50.786;7.058;2023-05-16T08:02:50;101338.59;;;11.68;63.36
67109;BME280;54027;50.786;7.058;2023-05-16T08:05:16;101383.38;;;11.90;65.52
67109;BME280;54027;50.786;7.058;2023-05-16T08:07:45;101372.03;;;12.18;64.98
67109;BME280;54027;50.786;7.058;2023-05-16T08:10:10;101335.69;;;12.27;63.24
67109;BME280;54027;50.786;7.058;2023-05-16T08:12:36;101322.78;;;12.18;61.99
67109;BME280;54027;50.786;7.058;2023-05-16T08:15:02;101311.56;;;12.22;61.26
67109;BME280;54027;50.786;7.058;2023-05-16T08:17:28;101317.50;;;12.33;61.32
67109;BME280;54027;50.786;7.058;2023-05-16T08:19:53;101307.13;;;12.36;60.07
67109;BME280;54027;50.786;7.058;2023-05-16T08:22:19;101308.91;;;12.28;60.80
67109;BME280;54027;50.786;7.058;2023-05-16T08:24:44;101299.50;;;12.15;59.36
67109;BME280;54027;50.786;7.058;2023-05-16T08:27:10;101308.97;;;12.22;59.97
67109;BME280;54027;50.786;7.058;2023-05-16T08:29:36;101312.38;;;12.26;60.52
67109;BME280;54027;50.786;7.058;2023-05-16T08:32:01;101321.94;;;12.15;60.13
67109;BME280;54027;50.786;7.058;2023-05-16T08:34:29;101343.63;;;12.05;61.10
67109;BME280;54027;50.786;7.058;2023-05-16T08:36:55;101387.50;;;12.32;63.12
67109;BME280;54027;50.786;7.058;2023-05-16T08:39:21;101313.94;;;12.51;59.87
67109;BME280;54027;50.786;7.058;2023-05-16T08:41:46;101323.09;;;12.93;60.88
67109;BME280;54027;50.786;7.058;2023-05-16T08:44:12;101308.97;;;13.24;59.75
67109;BME280;54027;50.786;7.058;2023-05-16T08:46:51;101262.44;;;13.08;56.96
67109;BME280;54027;50.786;7.058;2023-05-16T08:49:18;101242.41;;;13.19;55.94
67109;BME280;54027;50.786;7.058;2023-05-16T08:51:45;101258.31;;;13.62;55.31
67109;BME280;54027;50.786;7.058;2023-05-16T08:54:12;101244.78;;;13.37;55.59
67109;BME280;54027;50.786;7.058;2023-05-16T08:56:40;101258.06;;;13.10;54.35
67109;BME280;54027;50.786;7.058;2023-05-16T08:59:06;101263.34;;;13.00;55.65
67109;BME280;54027;50.786;7.058;2023-05-16T09:01:32;101255.50;;;13.08;54.93
67109;BME280;54027;50.786;7.058;2023-05-16T09:03:58;101265.59;;;13.35;55.54
67109;BME280;54027;50.786;7.058;2023-05-16T09:06:24;101264.63;;;13.42;55.89
67109;BME280;54027;50.786;7.058;2023-05-16T09:08:51;101255.25;;;13.32;55.16
67109;BME280;54027;50.786;7.058;2023-05-16T09:11:17;101292.38;;;13.37;56.90
67109;BME280;54027;50.786;7.058;2023-05-16T09:13:43;101319.22;;;13.38;58.31
67109;BME280;54027;50.786;7.058;2023-05-16T09:16:16;101312.47;;;13.19;57.56
67109;BME280;54027;50.786;7.058;2023-05-16T09:18:43;101319.56;;;13.03;57.73
67109;BME280;54027;50.786;7.058;2023-05-16T09:21:10;101310.72;;;13.21;57.01
67109;BME280;54027;50.786;7.058;2023-05-16T09:23:35;101311.44;;;13.36;57.26
67109;BME280;54027;50.786;7.058;2023-05-16T09:26:02;101310.28;;;13.60;56.67
67109;BME280;54027;50.786;7.058;2023-05-16T09:28:29;101271.31;;;13.62;55.37
67109;BME280;54027;50.786;7.058;2023-05-16T09:30:54;101268.91;;;13.46;55.33
67109;BME280;54027;50.786;7.058;2023-05-16T09:33:23;101289.47;;;13.65;56.23
67109;BME280;54027;50.786;7.058;2023-05-16T09:35:59;101257.06;;;13.90;54.88
67109;BME280;54027;50.786;7.058;2023-05-16T09:38:26;101223.38;;;14.37;52.85
67109;BME280;54027;50.786;7.058;2023-05-16T09:40:53;101177.75;;;14.21;50.33
67109;BME280;54027;50.786;7.058;2023-05-16T09:43:24;101199.31;;;14.26;51.20
67109;BME280;54027;50.786;7.058;2023-05-16T09:45:51;101212.88;;;14.48;50.68
67109;BME280;54027;50.786;7.058;2023-05-16T09:48:17;101185.97;;;13.94;50.62
67109;BME280;54027;50.786;7.058;2023-05-16T09:50:50;101223.53;;;14.30;50.99
67109;BME280;54027;50.786;7.058;2023-05-16T09:53:17;101211.13;;;14.47;49.75
67109;BME280;54027;50.786;7.058;2023-05-16T09:55:42;101153.28;;;14.79;48.55
67109;BME280;54027;50.786;7.058;2023-05-16T09:58:08;101165.94;;;14.52;48.58
67109;BME280;54027;50.786;7.058;2023-05-16T10:00:33;101184.69;;;14.70;49.15
67109;BME280;54027;50.786;7.058;2023-05-16T10:03:00;101160.78;;;14.49;48.11
67109;BME280;54027;50.786;7.058;2023-05-16T10:05:27;101184.81;;;14.11;49.07
67109;BME280;54027;50.786;7.058;2023-05-16T10:07:56;101200.31;;;14.18;49.56
67109;BME280;54027;50.786;7.058;2023-05-16T10:10:22;101182.56;;;14.44;48.75
67109;BME280;54027;50.786;7.058;2023-05-16T10:12:49;101183.50;;;14.41;48.65
67109;BME280;54027;50.786;7.058;2023-05-16T10:15:16;101169.56;;;14.45;47.99
67109;BME280;54027;50.786;7.058;2023-05-16T10:17:42;101194.81;;;14.39;48.87
67109;BME280;54027;50.786;7.058;2023-05-16T10:20:10;101202.06;;;14.17;49.69
67109;BME280;54027;50.786;7.058;2023-05-16T10:22:42;101215.38;;;13.97;50.10
67109;BME280;54027;50.786;7.058;2023-05-16T10:25:14;101184.72;;;14.18;48.64
67109;BME280;54027;50.786;7.058;2023-05-16T10:27:42;101145.31;;;14.88;46.73
67109;BME280;54027;50.786;7.058;2023-05-16T10:30:09;101130.25;;;15.03;45.85
67109;BME280;54027;50.786;7.058;2023-05-16T10:32:35;101170.75;;;14.74;47.17
67109;BME280;54027;50.786;7.058;2023-05-16T10:35:02;101186.63;;;14.60;47.92
67109;BME280;54027;50.786;7.058;2023-05-16T10:37:30;101204.13;;;14.50;49.62
67109;BME280;54027;50.786;7.058;2023-05-16T10:39:58;101192.50;;;14.70;48.69
67109;BME280;54027;50.786;7.058;2023-05-16T10:42:25;101170.09;;;15.07;48.05
67109;BME280;54027;50.786;7.058;2023-05-16T10:44:53;101116.38;;;15.43;44.96
67109;BME280;54027;50.786;7.058;2023-05-16T10:47:21;101109.81;;;15.62;44.95
67109;BME280;54027;50.786;7.058;2023-05-16T10:49:47;101143.16;;;15.86;46.09
67109;BME280;54027;50.786;7.058;2023-05-16T10:52:12;101091.47;;;15.68;44.01
67109;BME280;54027;50.786;7.058;2023-05-16T10:54:45;101118.03;;;15.84;44.34
67109;BME280;54027;50.786;7.058;2023-05-16T10:57:17;101128.91;;;16.01;45.15
67109;BME280;54027;50.786;7.058;2023-05-16T10:59:46;101084.13;;;15.47;42.43
67109;BME280;54027;50.786;7.058;2023-05-16T11:02:31;101121.06;;;15.67;43.91
67109;BME280;54027;50.786;7.058;2023-05-16T11:05:00;101131.00;;;15.08;44.60
67109;BME280;54027;50.786;7.058;2023-05-16T11:07:31;101194.91;;;15.25;47.36
67109;BME280;54027;50.786;7.058;2023-05-16T11:10:08;101157.19;;;15.42;45.56
67109;BME280;54027;50.786;7.058;2023-05-16T11:15:30;101177.03;;;15.48;45.42
67109;BME280;54027;50.786;7.058;2023-05-16T11:18:12;101127.72;;;15.40;43.65
67109;BME280;54027;50.786;7.058;2023-05-16T11:20:39;101149.53;;;15.35;44.42
67109;BME280;54027;50.786;7.058;2023-05-16T11:23:24;101128.81;;;15.70;42.95
67109;BME280;54027;50.786;7.058;2023-05-16T11:25:55;101109.03;;;15.58;42.51
67109;BME280;54027;50.786;7.058;2023-05-16T11:28:23;101115.25;;;15.53;43.50
67109;BME280;54027;50.786;7.058;2023-05-16T11:30:51;101146.03;;;15.75;44.74
67109;BME280;54027;50.786;7.058;2023-05-16T11:33:19;101117.97;;;15.48;42.34
67109;BME280;54027;50.786;7.058;2023-05-16T11:36:05;101116.97;;;15.54;42.80
67109;BME280;54027;50.786;7.058;2023-05-16T11:38:31;101107.34;;;15.57;42.64
67109;BME280;54027;50.786;7.058;2023-05-16T11:41:04;101107.63;;;15.45;42.73
67109;BME280;54027;50.786;7.058;2023-05-16T11:43:39;101148.91;;;15.23;43.80
67109;BME280;54027;50.786;7.058;2023-05-16T11:46:05;101118.22;;;15.76;42.81
67109;BME280;54027;50.786;7.058;2023-05-16T11:48:32;101153.34;;;16.63;42.84
67109;BME280;54027;50.786;7.058;2023-05-16T11:50:58;101143.53;;;16.40;42.73
67109;BME280;54027;50.786;7.058;2023-05-16T11:53:23;101114.75;;;16.43;41.70
67109;BME280;54027;50.786;7.058;2023-05-16T11:55:49;101128.63;;;16.45;43.50
67109;BME280;54027;50.786;7.058;2023-05-16T11:58:18;101120.69;;;16.82;41.71
67109;BME280;54027;50.786;7.058;2023-05-16T12:00:49;101101.72;;;17.60;40.99
67109;BME280;54027;50.786;7.058;2023-05-16T12:03:17;101099.53;;;16.91;40.98
67109;BME280;54027;50.786;7.058;2023-05-16T12:05:54;101120.00;;;16.74;41.87
67109;BME280;54027;50.786;7.058;2023-05-16T12:08:21;101128.69;;;16.42;42.19
67109;BME280;54027;50.786;7.058;2023-05-16T12:10:49;101158.81;;;16.21;43.42
67109;BME280;54027;50.786;7.058;2023-05-16T12:13:16;101161.94;;;16.00;43.77
67109;BME280;54027;50.786;7.058;2023-05-16T12:15:42;101172.69;;;15.87;43.95
67109;BME280;54027;50.786;7.058;2023-05-16T12:18:09;101199.03;;;15.76;45.26
67109;BME280;54027;50.786;7.058;2023-05-16T12:20:35;101209.47;;;15.76;44.60
67109;BME280;54027;50.786;7.058;2023-05-16T12:23:00;101188.00;;;15.62;44.57
67109;BME280;54027;50.786;7.058;2023-05-16T12:25:28;101217.34;;;15.73;45.26
67109;BME280;54027;50.786;7.058;2023-05-16T12:27:56;101192.72;;;16.21;44.60
67109;BME280;54027;50.786;7.058;2023-05-16T12:30:25;101201.13;;;15.97;45.32
67109;BME280;54027;50.786;7.058;2023-05-16T12:32:54;101206.38;;;15.96;45.63
67109;BME280;54027;50.786;7.058;2023-05-16T12:35:19;101193.28;;;15.97;45.20
67109;BME280;54027;50.786;7.058;2023-05-16T12:37:45;101202.91;;;15.97;46.10
67109;BME280;54027;50.786;7.058;2023-05-16T12:40:11;101177.25;;;16.48;43.88
67109;BME280;54027;50.786;7.058;2023-05-16T12:42:37;101127.56;;;16.84;42.00
67109;BME280;54027;50.786;7.058;2023-05-16T12:45:03;101149.06;;;16.93;42.21
67109;BME280;54027;50.786;7.058;2023-05-16T12:47:37;101129.78;;;17.27;41.77
67109;BME280;54027;50.786;7.058;2023-05-16T12:50:08;101114.63;;;17.38;40.96
67109;BME280;54027;50.786;7.058;2023-05-16T12:52:34;101137.19;;;17.41;41.79
67109;BME280;54027;50.786;7.058;2023-05-16T12:54:59;101122.41;;;17.40;40.72
67109;BME280;54027;50.786;7.058;2023-05-16T12:57:25;101116.09;;;17.47;40.79
67109;BME280;54027;50.786;7.058;2023-05-16T12:59:50;101121.13;;;17.25;40.97
67109;BME280;54027;50.786;7.058;2023-05-16T13:02:16;101143.75;;;17.26;42.42
67109;BME280;54027;50.786;7.058;2023-05-16T13:04:42;101154.09;;;17.29;42.11